Time;durP1;ratioP1;P1;durP2;ratioP2;P2;SDS_P1;SDS_P2;PMS_P1;PMS_P2;Temp;Humidity;BMP_temperature;BMP_pressure;BME280_temperature;BME280_humidity;BME280_pressure;Samples;Min_cycle;Max_cycle;Signal;HPM_P1;HPM_P2
2022/06/15 00:01:43;;;;;;;5.45;1.67;;;12.90;86.20;;;;;;5095970;28;20055;-82
2022/06/15 00:04:08;;;;;;;4.20;1.70;;;12.70;85.90;;;;;;5077933;28;20059;-82
2022/06/15 00:06:40;;;;;;;3.20;1.42;;;12.60;86.30;;;;;;5094419;28;20024;-82
2022/06/15 00:09:07;;;;;;;2.97;1.52;;;12.50;86.50;;;;;;5075735;28;20028;-82
2022/06/15 00:11:36;;;;;;;7.70;1.98;;;12.40;87.00;;;;;;5095180;28;20020;-82
2022/06/15 00:14:06;;;;;;;3.03;1.60;;;12.30;87.10;;;;;;5120628;28;20027;-82
2022/06/15 00:16:32;;;;;;;1.92;1.52;;;12.20;87.50;;;;;;5089101;28;20429;-82
2022/06/15 00:18:57;;;;;;;5.20;1.60;;;12.30;87.90;;;;;;5108759;28;20077;-82
2022/06/15 00:21:23;;;;;;;5.07;2.08;;;12.20;87.40;;;;;;5112957;28;20031;-82
2022/06/15 00:23:50;;;;;;;4.90;1.77;;;12.20;87.90;;;;;;5089975;28;20035;-82
2022/06/15 00:26:16;;;;;;;4.40;1.70;;;12.20;87.80;;;;;;5090529;28;20028;-82
2022/06/15 00:28:41;;;;;;;5.55;2.40;;;12.30;87.60;;;;;;5094667;28;20390;-82
2022/06/15 00:31:07;;;;;;;3.72;1.73;;;12.30;87.70;;;;;;5107902;28;20028;-82
2022/06/15 00:33:33;;;;;;;5.95;1.77;;;12.50;87.90;;;;;;5094990;28;20035;-82
2022/06/15 00:36:08;;;;;;;3.90;1.80;;;12.50;87.90;;;;;;5096512;28;20391;-82
2022/06/15 00:38:39;;;;;;;4.53;1.70;;;12.50;87.80;;;;;;5084633;28;20425;-82
2022/06/15 00:41:07;;;;;;;7.22;1.95;;;12.50;88.10;;;;;;5108136;28;20044;-83
2022/06/15 00:43:43;;;;;;;4.78;1.90;;;12.60;88.00;;;;;;5094334;28;20539;-82
2022/06/15 00:46:36;;;;;;;2.17;1.30;;;12.60;88.10;;;;;;5092507;28;20039;-82
2022/06/15 00:49:24;;;;;;;3.28;1.80;;;12.70;88.00;;;;;;5099973;28;20507;-82
2022/06/15 00:51:53;;;;;;;5.50;1.73;;;12.70;87.60;;;;;;5093435;28;20031;-82
2022/06/15 00:54:20;;;;;;;5.30;1.58;;;12.70;87.20;;;;;;5094765;28;20049;-82
2022/06/15 00:56:45;;;;;;;4.97;1.83;;;12.80;87.00;;;;;;5109708;28;20032;-82
2022/06/15 00:59:29;;;;;;;4.57;1.90;;;12.80;87.00;;;;;;5121825;28;20367;-82
2022/06/15 01:01:55;;;;;;;4.47;1.90;;;12.80;86.90;;;;;;5112019;28;20102;-82
2022/06/15 01:04:21;;;;;;;3.20;1.83;;;12.90;87.20;;;;;;5093804;28;20123;-82
2022/06/15 01:07:05;;;;;;;3.95;1.70;;;12.90;87.30;;;;;;5118316;28;20110;-82
2022/06/15 01:09:36;;;;;;;3.85;1.92;;;12.90;87.10;;;;;;5095810;28;20024;-82
2022/06/15 01:12:20;;;;;;;2.58;1.50;;;12.90;87.20;;;;;;5075576;27;1013235;-82
2022/06/15 01:15:01;;;;;;;6.25;1.83;;;13.00;87.30;;;;;;5109863;27;20049;-82
2022/06/15 01:17:54;;;;;;;5.07;1.77;;;13.00;87.40;;;;;;5102453;28;20030;-82
2022/06/15 01:20:37;;;;;;;4.75;2.08;;;13.00;87.50;;;;;;5107084;27;20035;-82
2022/06/15 01:23:42;;;;;;;4.40;2.05;;;13.00;87.50;;;;;;5109604;27;20140;-82
2022/06/15 01:26:26;;;;;;;4.90;1.42;;;13.00;87.10;;;;;;5092008;28;20027;-82
2022/06/15 01:29:15;;;;;;;3.45;1.73;;;13.00;87.30;;;;;;5088921;28;20043;-82
2022/06/15 01:31:49;;;;;;;4.93;2.20;;;13.00;87.40;;;;;;5108996;28;20030;-82
2022/06/15 01:34:36;;;;;;;3.88;1.50;;;13.00;87.30;;;;;;5089685;28;20478;-82
2022/06/15 01:37:15;;;;;;;3.08;1.73;;;13.00;88.00;;;;;;5095387;28;20091;-82
2022/06/15 01:39:52;;;;;;;2.85;1.42;;;13.00;87.90;;;;;;5105545;27;20132;-82
2022/06/15 01:42:25;;;;;;;3.72;1.65;;;13.00;87.80;;;;;;5090142;28;20027;-82
2022/06/15 01:44:56;;;;;;;2.70;1.73;;;13.00;87.90;;;;;;5094559;28;20023;-82
2022/06/15 01:47:25;;;;;;;3.15;1.65;;;12.90;87.60;;;;;;5112517;28;20036;-82
2022/06/15 01:50:04;;;;;;;5.68;1.98;;;13.00;87.60;;;;;;5096612;27;20122;-82
2022/06/15 01:52:35;;;;;;;3.55;1.60;;;12.90;87.70;;;;;;5100556;28;20106;-82
2022/06/15 01:55:10;;;;;;;3.15;1.80;;;12.90;87.60;;;;;;5102454;28;20047;-82
2022/06/15 01:57:38;;;;;;;3.85;1.98;;;12.80;87.70;;;;;;5103604;27;20102;-82
2022/06/15 02:00:08;;;;;;;5.25;2.30;;;12.80;88.00;;;;;;5113780;28;20027;-82
2022/06/15 02:03:10;;;;;;;5.40;2.35;;;12.80;88.70;;;;;;5096194;28;20115;-82
2022/06/15 02:05:56;;;;;;;5.22;1.55;;;12.80;89.20;;;;;;5094322;28;20015;-82
2022/06/15 02:08:52;;;;;;;6.22;2.15;;;12.80;89.40;;;;;;5110951;27;20130;-82
2022/06/15 02:11:20;;;;;;;4.28;1.90;;;12.90;89.70;;;;;;5086266;28;20040;-82
2022/06/15 02:14:07;;;;;;;3.63;1.77;;;12.80;89.40;;;;;;5086831;28;20038;-82
2022/06/15 02:16:44;;;;;;;4.95;2.20;;;12.80;89.20;;;;;;5095436;28;20423;-82
2022/06/15 02:19:13;;;;;;;3.53;1.85;;;12.80;89.40;;;;;;5093385;28;20053;-82
2022/06/15 02:21:42;;;;;;;3.97;1.83;;;12.80;89.30;;;;;;5114123;28;20032;-82
2022/06/15 02:24:11;;;;;;;4.53;1.90;;;12.70;89.10;;;;;;5095933;28;20118;-82
2022/06/15 02:26:39;;;;;;;4.47;1.90;;;12.70;89.30;;;;;;5081529;28;20528;-82
2022/06/15 02:29:17;;;;;;;2.97;1.85;;;12.70;89.50;;;;;;5108944;28;20733;-82
2022/06/15 02:31:43;;;;;;;4.28;2.20;;;12.70;89.80;;;;;;5109571;27;20111;-82
2022/06/15 02:34:08;;;;;;;3.35;1.85;;;12.70;89.60;;;;;;5112369;28;20055;-82
2022/06/15 02:36:34;;;;;;;8.02;2.53;;;12.80;90.20;;;;;;5113101;28;20027;-82
2022/06/15 02:39:03;;;;;;;5.32;2.28;;;12.70;90.30;;;;;;5095509;28;20096;-82
2022/06/15 02:41:29;;;;;;;4.05;1.98;;;12.70;89.70;;;;;;5096068;28;20023;-82
2022/06/15 02:43:56;;;;;;;3.10;1.92;;;12.80;89.40;;;;;;5093642;28;20504;-83
2022/06/15 02:46:24;;;;;;;5.93;2.20;;;12.80;89.30;;;;;;5112130;28;20020;-83
2022/06/15 02:48:50;;;;;;;4.55;2.10;;;12.80;89.10;;;;;;5090896;28;20024;-82
2022/06/15 02:51:34;;;;;;;4.35;2.28;;;12.80;88.90;;;;;;5115292;28;20471;-82
2022/06/15 02:54:07;;;;;;;6.43;2.30;;;12.80;88.80;;;;;;5109935;28;20497;-82
2022/06/15 02:56:34;;;;;;;2.83;2.00;;;12.80;88.60;;;;;;5110875;28;20049;-82
2022/06/15 02:59:00;;;;;;;5.38;2.20;;;12.80;88.60;;;;;;5081944;28;20506;-82
2022/06/15 03:01:26;;;;;;;6.28;2.33;;;12.80;88.60;;;;;;5110023;28;20031;-82
2022/06/15 03:03:52;;;;;;;5.25;2.42;;;12.80;88.70;;;;;;5115435;28;20024;-82
2022/06/15 03:06:19;;;;;;;5.40;2.60;;;12.80;88.80;;;;;;5095056;28;20031;-82
2022/06/15 03:08:45;;;;;;;7.00;2.50;;;12.80;88.90;;;;;;5093260;28;20024;-82
2022/06/15 03:11:11;;;;;;;3.72;2.17;;;12.80;88.80;;;;;;5091695;28;20115;-82
2022/06/15 03:13:37;;;;;;;5.70;2.15;;;12.80;88.90;;;;;;5093854;28;20062;-82
2022/06/15 03:16:04;;;;;;;4.90;2.28;;;12.90;88.70;;;;;;5094975;28;20463;-83
2022/06/15 03:18:31;;;;;;;4.68;2.58;;;12.90;88.40;;;;;;5106963;28;20024;-82
2022/06/15 03:21:01;;;;;;;3.40;2.15;;;12.80;88.20;;;;;;5115502;28;20383;-82
2022/06/15 03:23:27;;;;;;;5.85;2.45;;;12.80;88.40;;;;;;5088224;28;20123;-82
2022/06/15 03:25:54;;;;;;;4.38;2.38;;;12.90;88.50;;;;;;5109012;28;20051;-82
2022/06/15 03:28:20;;;;;;;4.53;2.40;;;12.90;88.40;;;;;;5112321;28;20032;-82
2022/06/15 03:30:46;;;;;;;6.07;2.30;;;12.90;88.30;;;;;;5094107;28;20542;-83
2022/06/15 03:33:11;;;;;;;3.72;2.45;;;12.90;88.40;;;;;;5111875;28;20032;-82
2022/06/15 03:35:39;;;;;;;3.75;2.38;;;12.90;88.30;;;;;;5091280;28;20035;-82
2022/06/15 03:38:08;;;;;;;6.05;2.70;;;13.00;88.10;;;;;;5094423;28;20064;-82
2022/06/15 03:40:38;;;;;;;5.05;2.60;;;13.00;88.00;;;;;;5087790;28;20074;-82
2022/06/15 03:43:04;;;;;;;3.92;2.40;;;13.00;87.80;;;;;;5094089;28;20031;-82
2022/06/15 03:45:30;;;;;;;6.10;2.65;;;13.00;87.80;;;;;;5086007;28;20431;-82
2022/06/15 03:47:56;;;;;;;5.45;2.72;;;13.00;87.60;;;;;;5094475;28;20410;-82
2022/06/15 03:50:23;;;;;;;4.18;2.10;;;13.10;87.70;;;;;;5088536;28;20081;-82
2022/06/15 03:52:49;;;;;;;6.47;2.17;;;13.20;87.70;;;;;;5097858;28;20058;-82
2022/06/15 03:55:15;;;;;;;7.00;2.40;;;13.20;87.70;;;;;;5090258;28;20035;-82
2022/06/15 03:57:41;;;;;;;6.13;2.50;;;13.30;87.40;;;;;;5092676;28;20062;-82
2022/06/15 04:00:11;;;;;;;6.07;2.40;;;13.30;87.80;;;;;;5094208;28;20035;-82
2022/06/15 04:02:36;;;;;;;4.82;2.50;;;13.30;87.70;;;;;;5099042;28;20111;-82
2022/06/15 04:05:03;;;;;;;4.82;2.50;;;13.30;87.40;;;;;;5105495;27;20505;-82
2022/06/15 04:10:14;;;;;;;5.57;2.50;;;13.30;86.90;;;;;;5107022;27;20563;-82
2022/06/15 04:12:39;;;;;;;3.03;2.00;;;13.30;86.80;;;;;;5096881;28;20495;-82
2022/06/15 04:15:09;;;;;;;4.28;2.13;;;13.40;86.60;;;;;;5092189;28;20043;-82
2022/06/15 04:17:38;;;;;;;5.93;2.10;;;13.50;86.50;;;;;;5089459;28;20032;-82
2022/06/15 04:22:50;;;;;;;6.30;2.28;;;13.50;86.20;;;;;;5118785;27;20066;-82
2022/06/15 04:25:16;;;;;;;5.82;2.40;;;13.60;86.20;;;;;;5092653;28;20079;-82
2022/06/15 04:27:41;;;;;;;3.95;2.28;;;13.60;86.30;;;;;;5113120;28;20089;-82
2022/06/15 04:30:09;;;;;;;6.00;2.40;;;13.70;86.20;;;;;;5100590;28;20085;-82
2022/06/15 04:32:34;;;;;;;7.13;2.65;;;13.80;86.20;;;;;;5099225;28;20043;-82
2022/06/15 04:35:00;;;;;;;8.48;3.20;;;13.80;86.30;;;;;;5119407;28;20024;-82
2022/06/15 04:37:26;;;;;;;9.90;2.70;;;13.80;86.10;;;;;;5095350;28;20051;-82
2022/06/15 04:39:51;;;;;;;9.88;3.20;;;13.90;85.80;;;;;;5092094;28;20062;-82
2022/06/15 04:42:17;;;;;;;5.40;2.63;;;14.00;85.80;;;;;;5092036;28;20402;-82
2022/06/15 04:44:42;;;;;;;8.57;3.22;;;14.10;85.80;;;;;;5090786;28;20018;-82
2022/06/15 04:47:09;;;;;;;7.15;2.58;;;14.10;85.40;;;;;;5110639;27;20030;-82
2022/06/15 04:49:35;;;;;;;7.07;2.72;;;14.10;84.20;;;;;;5093580;28;20459;-82
2022/06/15 04:52:00;;;;;;;10.52;2.95;;;14.30;84.80;;;;;;5112921;28;20032;-82
2022/06/15 04:54:26;;;;;;;5.40;2.70;;;14.30;84.80;;;;;;5093153;27;20036;-82
2022/06/15 04:56:53;;;;;;;4.53;2.25;;;14.40;85.00;;;;;;5087140;28;20114;-82
2022/06/15 04:59:18;;;;;;;3.60;1.95;;;14.50;84.70;;;;;;5111251;27;22108;-82
2022/06/15 05:01:44;;;;;;;5.15;2.20;;;14.60;84.90;;;;;;5111957;28;20082;-82
2022/06/15 05:04:09;;;;;;;6.80;2.00;;;14.60;83.80;;;;;;5098163;28;20015;-82
2022/06/15 05:06:41;;;;;;;6.53;2.28;;;14.60;82.80;;;;;;5114551;28;20024;-82
2022/06/15 05:09:10;;;;;;;4.80;2.33;;;14.70;83.50;;;;;;5094846;28;20039;-82
2022/06/15 05:11:36;;;;;;;5.38;2.05;;;14.80;83.30;;;;;;5092420;28;20047;-82
2022/06/15 05:14:03;;;;;;;7.28;2.58;;;14.90;83.00;;;;;;5115156;27;20027;-82
2022/06/15 05:16:29;;;;;;;8.55;2.38;;;14.90;83.00;;;;;;5109734;27;20011;-83
2022/06/15 05:18:55;;;;;;;4.90;2.60;;;15.00;83.30;;;;;;5091890;27;20060;-83
2022/06/15 05:21:20;;;;;;;4.95;2.75;;;15.00;82.80;;;;;;5092075;28;20039;-83
2022/06/15 05:23:46;;;;;;;6.18;2.35;;;15.10;83.50;;;;;;5110469;27;20038;-83
2022/06/15 05:26:11;;;;;;;6.13;2.40;;;15.10;83.80;;;;;;5100993;27;20511;-83
2022/06/15 05:28:41;;;;;;;3.85;2.00;;;15.30;82.90;;;;;;5107576;28;20049;-83
2022/06/15 05:31:11;;;;;;;6.40;2.10;;;15.30;82.70;;;;;;5112911;27;20588;-83
2022/06/15 05:33:40;;;;;;;5.20;1.95;;;15.40;82.50;;;;;;5091737;28;20367;-83
2022/06/15 05:36:08;;;;;;;4.30;1.85;;;15.50;82.50;;;;;;5083177;28;20028;-83
2022/06/15 05:38:34;;;;;;;4.10;1.90;;;15.60;80.80;;;;;;5094532;28;20421;-83
2022/06/15 05:40:59;;;;;;;5.43;1.50;;;15.70;80.50;;;;;;5089281;28;20030;-83
2022/06/15 05:43:25;;;;;;;5.13;2.15;;;15.80;79.30;;;;;;5089572;28;20019;-83
2022/06/15 05:45:50;;;;;;;7.20;1.92;;;16.00;80.30;;;;;;5093846;28;20100;-83
2022/06/15 05:48:16;;;;;;;4.05;1.90;;;16.00;78.10;;;;;;5091809;28;20031;-83
2022/06/15 05:50:41;;;;;;;3.80;1.65;;;16.10;77.40;;;;;;5087399;28;20020;-83
2022/06/15 05:53:07;;;;;;;5.22;1.80;;;16.20;78.10;;;;;;5109200;28;20150;-83
2022/06/15 05:55:32;;;;;;;6.97;2.00;;;16.30;78.40;;;;;;5090365;28;20833;-83
2022/06/15 05:57:58;;;;;;;3.58;1.35;;;16.30;77.40;;;;;;5092354;28;20506;-83
2022/06/15 06:00:25;;;;;;;3.45;1.27;;;16.40;78.00;;;;;;5107850;28;20031;-83
2022/06/15 06:02:51;;;;;;;3.70;1.20;;;16.50;77.90;;;;;;5091612;28;20463;-83
2022/06/15 06:05:17;;;;;;;3.67;1.30;;;16.60;76.80;;;;;;5091866;28;20020;-83
2022/06/15 06:07:42;;;;;;;3.33;1.55;;;16.80;77.40;;;;;;5088500;28;20061;-83
2022/06/15 06:10:08;;;;;;;8.00;1.52;;;16.80;75.90;;;;;;5084638;28;20383;-83
2022/06/15 06:12:34;;;;;;;4.03;1.35;;;17.00;76.00;;;;;;5114928;28;20414;-82
2022/06/15 06:14:59;;;;;;;8.60;1.55;;;17.20;76.40;;;;;;5099114;28;20027;-82
2022/06/15 06:17:28;;;;;;;5.45;1.35;;;17.00;73.20;;;;;;5089349;28;20043;-82
2022/06/15 06:19:53;;;;;;;4.45;1.33;;;17.00;74.10;;;;;;5090963;28;20099;-81
2022/06/15 06:22:19;;;;;;;3.88;1.13;;;17.00;73.00;;;;;;5108702;28;20027;-81
2022/06/15 06:24:44;;;;;;;4.40;1.30;;;17.20;72.50;;;;;;5112102;28;20034;-81
2022/06/15 06:27:15;;;;;;;4.60;1.23;;;17.40;72.40;;;;;;5091924;28;20136;-81
2022/06/15 06:29:41;;;;;;;4.57;2.05;;;17.30;71.70;;;;;;5093270;28;20068;-81
2022/06/15 06:32:09;;;;;;;5.07;1.30;;;17.20;72.40;;;;;;5091933;28;20070;-82
2022/06/15 06:34:34;;;;;;;4.57;1.30;;;17.30;72.90;;;;;;5089635;28;20024;-81
2022/06/15 06:37:02;;;;;;;4.28;1.50;;;17.50;71.70;;;;;;5107584;28;20605;-81
2022/06/15 06:39:29;;;;;;;3.05;1.27;;;17.80;71.50;;;;;;5082450;28;20024;-82
2022/06/15 06:41:57;;;;;;;5.80;1.40;;;18.00;69.70;;;;;;5104386;28;20032;-82
2022/06/15 06:44:23;;;;;;;3.95;1.17;;;17.80;69.80;;;;;;5107867;28;20116;-82
2022/06/15 06:46:50;;;;;;;5.30;1.17;;;17.70;71.40;;;;;;5107792;28;20107;-82
2022/06/15 06:49:17;;;;;;;4.75;1.27;;;17.80;70.60;;;;;;5084898;28;20031;-82
2022/06/15 06:51:44;;;;;;;4.65;1.02;;;17.90;71.10;;;;;;5106560;28;20368;-81
2022/06/15 06:54:11;;;;;;;3.17;1.40;;;17.90;70.90;;;;;;5094962;28;20558;-81
2022/06/15 06:56:37;;;;;;;5.03;1.55;;;18.00;70.50;;;;;;5091611;28;20023;-81
2022/06/15 06:59:06;;;;;;;4.57;1.40;;;18.20;70.20;;;;;;5090387;28;20035;-82
2022/06/15 07:01:32;;;;;;;5.43;1.02;;;18.20;68.40;;;;;;5094134;28;20042;-82
2022/06/15 07:03:58;;;;;;;3.80;1.05;;;18.50;67.00;;;;;;5109048;28;20039;-81
2022/06/15 07:06:23;;;;;;;3.85;1.38;;;18.50;65.40;;;;;;5107482;28;20034;-82
2022/06/15 07:08:50;;;;;;;3.75;1.20;;;18.50;65.90;;;;;;5085640;28;20475;-82
2022/06/15 07:11:17;;;;;;;3.28;1.20;;;18.50;63.30;;;;;;5105547;28;20058;-82
2022/06/15 07:13:44;;;;;;;2.65;0.98;;;18.60;62.20;;;;;;5083323;28;20031;-82
2022/06/15 07:16:12;;;;;;;2.33;0.93;;;18.80;64.60;;;;;;5088475;28;20030;-82
2022/06/15 07:18:38;;;;;;;2.50;1.02;;;19.00;62.80;;;;;;5116590;27;20126;-82
2022/06/15 07:21:12;;;;;;;2.53;1.08;;;18.90;63.00;;;;;;5090945;27;20451;-82
2022/06/15 07:23:38;;;;;;;3.13;1.00;;;19.10;63.90;;;;;;5098801;28;20513;-82
2022/06/15 07:26:06;;;;;;;4.40;1.33;;;19.10;63.70;;;;;;5090285;27;20126;-82
2022/06/15 07:28:33;;;;;;;3.03;1.30;;;18.90;61.20;;;;;;5108823;27;20024;-81
2022/06/15 07:30:59;;;;;;;1.52;1.00;;;19.00;62.50;;;;;;5095054;28;20051;-82
2022/06/15 07:33:25;;;;;;;3.15;1.25;;;19.50;62.90;;;;;;5117933;28;20028;-82
2022/06/15 07:35:50;;;;;;;1.50;0.85;;;19.50;61.70;;;;;;5099770;27;20068;-82
2022/06/15 07:38:16;;;;;;;4.45;1.08;;;19.90;63.80;;;;;;5099607;28;20036;-82
2022/06/15 07:40:42;;;;;;;3.78;1.15;;;20.20;62.20;;;;;;5112230;28;20027;-82
2022/06/15 07:43:07;;;;;;;2.60;0.98;;;20.30;60.50;;;;;;5090055;28;20031;-82
2022/06/15 07:45:33;;;;;;;3.72;0.93;;;20.70;61.20;;;;;;5088175;27;20024;-82
2022/06/15 07:50:43;;;;;;;3.38;1.10;;;21.00;59.00;;;;;;5110389;28;20371;-82
2022/06/15 07:53:12;;;;;;;5.05;1.27;;;21.40;57.10;;;;;;5108558;27;20028;-83
2022/06/15 07:55:40;;;;;;;1.77;0.77;;;21.50;54.00;;;;;;5105162;27;20376;-83
2022/06/15 07:58:06;;;;;;;5.20;1.05;;;21.90;56.00;;;;;;5086005;27;20066;-83
2022/06/15 08:00:34;;;;;;;1.67;1.00;;;22.20;56.20;;;;;;5099713;27;20084;-84
2022/06/15 08:03:01;;;;;;;5.30;1.20;;;22.20;55.00;;;;;;5103592;28;20389;-83
2022/06/15 08:05:29;;;;;;;2.20;1.10;;;22.50;54.80;;;;;;5103849;28;20024;-83
2022/06/15 08:07:55;;;;;;;3.00;0.80;;;22.60;52.80;;;;;;5085812;28;20028;-84
2022/06/15 08:10:24;;;;;;;1.98;1.00;;;22.90;53.40;;;;;;5083441;28;20432;-83
2022/06/15 08:12:50;;;;;;;2.58;1.10;;;22.70;53.90;;;;;;5089618;28;20043;-83
2022/06/15 08:15:16;;;;;;;3.53;1.20;;;22.50;52.90;;;;;;5097061;27;20044;-83
2022/06/15 08:17:52;;;;;;;4.68;1.13;;;22.00;52.30;;;;;;5089713;28;20020;-84
2022/06/15 08:20:29;;;;;;;5.40;0.98;;;21.50;52.90;;;;;;5092426;28;20487;-84
2022/06/15 08:23:01;;;;;;;5.15;1.20;;;21.50;55.40;;;;;;5095127;28;20083;-84
2022/06/15 08:25:32;;;;;;;2.58;1.00;;;21.50;53.60;;;;;;5089354;28;20558;-84
2022/06/15 08:27:59;;;;;;;3.35;1.00;;;21.40;56.20;;;;;;5103842;27;20447;-84
2022/06/15 08:30:26;;;;;;;2.63;0.98;;;21.30;53.60;;;;;;5103265;28;20055;-84
2022/06/15 08:32:52;;;;;;;2.80;1.00;;;21.50;55.20;;;;;;5088663;28;20024;-84
2022/06/15 08:35:18;;;;;;;4.25;1.00;;;21.40;52.90;;;;;;5088691;28;20032;-85
2022/06/15 08:37:44;;;;;;;6.15;1.10;;;21.30;53.30;;;;;;5104842;27;20055;-84
2022/06/15 08:40:10;;;;;;;3.25;1.00;;;21.50;56.60;;;;;;5085718;27;20038;-84
2022/06/15 08:43:01;;;;;;;4.35;1.25;;;22.30;56.40;;;;;;5085538;28;20023;-84
2022/06/15 08:45:39;;;;;;;4.57;1.50;;;22.30;51.70;;;;;;5090545;28;20768;-82
2022/06/15 08:48:14;;;;;;;5.28;1.20;;;22.00;49.30;;;;;;5100800;27;20075;-83
2022/06/15 08:50:45;;;;;;;3.20;1.08;;;22.10;51.20;;;;;;5103028;27;20032;-84
2022/06/15 08:53:26;;;;;;;5.93;1.20;;;22.70;50.70;;;;;;5106210;28;20030;-83
2022/06/15 08:56:10;;;;;;;5.18;1.23;;;22.60;49.80;;;;;;5082788;28;20063;-84
2022/06/15 08:59:00;;;;;;;3.63;1.30;;;23.00;51.20;;;;;;5104341;27;20047;-84
2022/06/15 09:01:51;;;;;;;7.57;1.52;;;23.40;49.30;;;;;;5090988;28;20498;-84
2022/06/15 09:04:30;;;;;;;3.00;1.08;;;23.30;46.70;;;;;;5074097;28;20471;-84
2022/06/15 09:07:26;;;;;;;4.55;1.30;;;22.70;46.30;;;;;;5086508;28;20103;-83
2022/06/15 09:10:31;;;;;;;4.88;1.40;;;23.30;47.00;;;;;;5081604;28;20019;-84
2022/06/15 09:13:20;;;;;;;2.00;0.82;;;23.60;46.00;;;;;;5091346;28;20394;-83
2022/06/15 09:15:56;;;;;;;3.17;1.20;;;23.30;45.40;;;;;;5085502;28;20487;-83
2022/06/15 09:18:27;;;;;;;4.47;1.27;;;23.60;47.20;;;;;;5105814;27;20070;-83
2022/06/15 09:21:07;;;;;;;6.03;1.35;;;23.50;46.90;;;;;;5086386;28;20035;-83
2022/06/15 09:23:46;;;;;;;4.20;1.38;;;22.70;48.90;;;;;;5087202;28;20490;-84
2022/06/15 09:26:22;;;;;;;3.67;1.17;;;22.10;50.10;;;;;;5105261;27;20020;-83
2022/06/15 09:29:01;;;;;;;4.80;1.30;;;22.50;48.50;;;;;;5083030;28;20032;-83
2022/06/15 09:31:34;;;;;;;3.10;1.15;;;23.30;48.70;;;;;;5106130;27;20183;-83
2022/06/15 09:34:03;;;;;;;7.32;1.40;;;23.60;45.90;;;;;;5088386;28;20491;-83
2022/06/15 09:36:34;;;;;;;4.10;1.23;;;22.90;46.70;;;;;;5085286;27;20020;-83
2022/06/15 09:38:59;;;;;;;;;;;22.50;48.20;;;;;;5087037;28;20034;-84
2022/06/15 09:41:32;;;;;;;2.65;1.20;;;22.40;51.30;;;;;;5080250;28;19908;-84
2022/06/15 09:44:03;;;;;;;3.05;1.23;;;21.90;51.00;;;;;;5080011;28;20031;-84
2022/06/15 09:46:34;;;;;;;6.88;1.60;;;21.60;52.00;;;;;;5086092;28;20032;-83
2022/06/15 09:49:21;;;;;;;3.17;1.15;;;21.40;52.80;;;;;;5086311;27;20024;-83
2022/06/15 09:52:29;;;;;;;4.88;1.25;;;21.30;53.30;;;;;;5085433;27;20023;-83
2022/06/15 09:55:02;;;;;;;4.07;1.08;;;21.40;53.30;;;;;;5039465;28;20036;-83
2022/06/15 09:57:30;;;;;;;4.10;0.90;;;22.50;50.50;;;;;;5077968;28;20411;-84
2022/06/15 09:59:57;;;;;;;3.33;1.35;;;23.00;51.00;;;;;;5081708;28;20016;-84
2022/06/15 10:02:28;;;;;;;3.88;1.30;;;23.30;48.40;;;;;;5105350;28;20019;-84
2022/06/15 10:04:56;;;;;;;4.00;1.20;;;23.80;47.60;;;;;;5091495;28;20032;-84
2022/06/15 10:07:44;;;;;;;4.45;1.23;;;24.10;47.10;;;;;;5110364;28;20066;-84
2022/06/15 10:10:21;;;;;;;7.63;1.38;;;23.90;46.80;;;;;;5105774;28;20024;-84
2022/06/15 10:13:02;;;;;;;4.07;1.30;;;24.30;45.30;;;;;;5080117;28;20136;-84
2022/06/15 10:15:36;;;;;;;3.40;1.15;;;23.80;46.20;;;;;;5075767;28;20027;-84
2022/06/15 10:18:17;;;;;;;5.50;1.55;;;24.90;46.80;;;;;;5088922;28;20027;-84
2022/06/15 10:20:53;;;;;;;;;;;24.70;44.90;;;;;;5105887;28;20084;-84
2022/06/15 10:23:22;;;;;;;4.88;1.10;;;24.60;43.30;;;;;;5090874;28;19911;-84
2022/06/15 10:25:52;;;;;;;3.72;1.00;;;25.50;44.60;;;;;;5091253;28;20046;-84
2022/06/15 10:28:23;;;;;;;6.47;1.33;;;25.40;41.90;;;;;;5088068;28;20043;-84
2022/06/15 10:31:00;;;;;;;5.00;1.05;;;25.60;42.80;;;;;;5083914;28;20030;-85
2022/06/15 10:33:39;;;;;;;5.22;1.20;;;26.30;40.80;;;;;;5110092;28;20028;-82
2022/06/15 10:36:21;;;;;;;5.43;1.60;;;26.00;42.60;;;;;;5091581;28;20554;-82
2022/06/15 10:38:56;;;;;;;3.47;1.27;;;26.00;40.20;;;;;;5091668;28;20031;-82
2022/06/15 10:41:48;;;;;;;4.93;1.15;;;25.80;42.20;;;;;;5091585;28;20031;-82
2022/06/15 10:44:35;;;;;;;3.50;1.10;;;26.60;41.30;;;;;;5090381;28;20558;-83
2022/06/15 10:47:18;;;;;;;2.33;0.90;;;26.00;39.50;;;;;;5088589;28;20023;-83
2022/06/15 10:49:51;;;;;;;5.75;1.33;;;25.70;42.40;;;;;;5092699;28;20063;-82
2022/06/15 10:52:37;;;;;;;4.00;1.02;;;25.60;42.70;;;;;;5107686;27;20031;-82
2022/06/15 11:02:08;;;;;;;3.20;1.38;;;24.30;45.50;;;;;;5080493;28;20054;-82
2022/06/15 11:04:37;;;;;;;3.17;1.15;;;24.10;44.90;;;;;;5110392;27;20293;-81
2022/06/15 11:07:10;;;;;;;8.40;1.73;;;23.30;46.70;;;;;;5096338;28;20499;-81
2022/06/15 11:10:02;;;;;;;4.47;1.73;;;22.50;46.70;;;;;;5090003;27;20025;-81
2022/06/15 11:13:00;;;;;;;4.85;1.50;;;22.50;46.90;;;;;;5109683;27;20118;-80
2022/06/15 11:18:26;;;;;;;5.53;2.00;;;24.00;44.80;;;;;;5110973;27;20030;-81
2022/06/15 11:21:07;;;;;;;5.70;1.60;;;24.50;44.40;;;;;;5100494;27;20150;-81
2022/06/15 11:23:51;;;;;;;6.18;1.70;;;24.80;42.70;;;;;;5110393;28;20023;-81
2022/06/15 11:29:28;;;;;;;7.05;1.60;;;25.20;41.70;;;;;;5113251;28;20019;-82
2022/06/15 11:31:58;;;;;;;4.53;1.58;;;26.00;40.30;;;;;;5105267;28;20035;-82
2022/06/15 11:34:30;;;;;;;2.83;1.25;;;26.50;40.80;;;;;;5095385;28;20061;-82
2022/06/15 11:37:08;;;;;;;4.63;1.40;;;25.40;42.50;;;;;;5113496;28;20405;-82
2022/06/15 11:39:46;;;;;;;3.40;1.38;;;25.50;40.70;;;;;;5113630;27;20050;-82
2022/06/15 11:42:17;;;;;;;5.85;1.70;;;25.60;39.70;;;;;;5113108;28;20032;-82
2022/06/15 11:44:44;;;;;;;3.58;1.25;;;26.10;38.40;;;;;;5088708;28;20016;-83
2022/06/15 11:47:41;;;;;;;4.10;1.27;;;26.00;39.30;;;;;;5108178;28;20077;-83
2022/06/15 11:50:21;;;;;;;3.92;1.23;;;26.30;37.60;;;;;;5106321;28;20267;-83
2022/06/15 11:53:22;;;;;;;7.47;1.60;;;26.20;39.00;;;;;;5101296;27;20039;-82
2022/06/15 11:56:07;;;;;;;3.95;1.30;;;26.60;40.20;;;;;;5068519;28;20045;-82
2022/06/15 11:58:51;;;;;;;5.18;1.52;;;26.20;38.80;;;;;;5089388;28;20368;-82
2022/06/15 12:01:51;;;;;;;3.10;1.48;;;26.50;38.80;;;;;;5113577;27;20035;-82
2022/06/15 12:04:42;;;;;;;4.03;1.30;;;26.40;37.90;;;;;;5068427;28;20455;-82
2022/06/15 12:07:10;;;;;;;;;;;26.90;39.00;;;;;;5112989;28;20039;-83
2022/06/15 12:10:01;;;;;;;4.32;1.30;;;26.70;39.20;;;;;;5107837;28;19916;-83
2022/06/15 12:12:38;;;;;;;8.23;1.75;;;27.90;37.50;;;;;;5108374;28;20108;-83
2022/06/15 12:15:31;;;;;;;6.60;1.30;;;28.70;37.20;;;;;;5110285;28;20028;-85
2022/06/15 12:18:18;;;;;;;3.80;1.40;;;29.20;36.10;;;;;;5097717;27;20382;-82
2022/06/15 12:21:05;;;;;;;2.47;1.33;;;27.50;36.70;;;;;;5089527;28;20020;-82
2022/06/15 12:23:40;;;;;;;4.15;1.08;;;27.30;36.00;;;;;;5113172;28;20027;-82
2022/06/15 12:26:44;;;;;;;3.97;1.23;;;27.70;35.20;;;;;;5089587;28;20032;-82
2022/06/15 12:29:41;;;;;;;3.75;1.30;;;27.90;35.70;;;;;;5091555;28;20383;-82
2022/06/15 12:32:34;;;;;;;4.13;1.55;;;27.90;34.80;;;;;;5090334;28;20031;-82
2022/06/15 12:35:30;;;;;;;5.65;1.45;;;27.50;36.30;;;;;;5089418;28;20469;-82
2022/06/15 12:38:16;;;;;;;5.53;1.17;;;28.20;35.20;;;;;;5089017;28;20036;-82
2022/06/15 12:40:46;;;;;;;3.85;1.17;;;28.80;35.70;;;;;;5097929;28;20068;-82
2022/06/15 12:43:41;;;;;;;3.35;1.20;;;29.00;34.60;;;;;;5112595;27;20026;-82
2022/06/15 12:46:10;;;;;;;6.07;1.40;;;28.20;34.20;;;;;;5103593;27;20032;-83
2022/06/15 12:49:09;;;;;;;4.03;1.15;;;28.80;36.00;;;;;;5110372;28;20058;-83
2022/06/15 12:51:40;;;;;;;5.15;1.25;;;28.30;34.40;;;;;;5095444;27;20219;-82
2022/06/15 12:54:27;;;;;;;2.83;1.17;;;28.60;35.20;;;;;;5100422;27;20420;-82
2022/06/15 12:57:11;;;;;;;6.00;1.48;;;27.90;34.50;;;;;;5107544;28;20024;-82
2022/06/15 13:00:05;;;;;;;4.00;1.45;;;28.40;35.10;;;;;;5110902;27;20065;-82
2022/06/15 13:02:49;;;;;;;4.85;1.20;;;29.40;35.00;;;;;;5110978;28;20023;-83
2022/06/15 13:05:22;;;;;;;3.45;1.30;;;29.70;32.00;;;;;;5093796;28;20023;-83
2022/06/15 13:08:16;;;;;;;6.22;1.55;;;29.30;31.40;;;;;;5108360;28;20035;-83
2022/06/15 13:11:09;;;;;;;2.92;1.30;;;28.50;33.80;;;;;;5089162;28;20049;-83
2022/06/15 13:14:03;;;;;;;5.03;1.17;;;28.60;32.90;;;;;;5079570;28;20440;-83
2022/06/15 13:16:34;;;;;;;4.15;1.40;;;29.50;36.10;;;;;;5074817;28;20033;-83
2022/06/15 13:19:01;;;;;;;6.55;1.48;;;29.70;31.40;;;;;;5068662;28;20545;-83
2022/06/15 13:21:29;;;;;;;2.58;1.10;;;29.20;31.90;;;;;;5072083;28;20020;-83
2022/06/15 13:24:02;;;;;;;4.55;1.27;;;30.30;31.70;;;;;;5089341;28;20076;-83
2022/06/15 13:26:37;;;;;;;4.53;1.35;;;30.70;33.40;;;;;;5073675;28;20105;-83
2022/06/15 13:29:06;;;;;;;2.97;1.25;;;31.10;30.50;;;;;;5070487;28;20042;-82
2022/06/15 13:31:42;;;;;;;3.17;1.05;;;29.70;32.00;;;;;;5084736;28;20544;-83
2022/06/15 13:34:13;;;;;;;3.88;1.10;;;28.80;34.10;;;;;;5087956;28;20048;-83
2022/06/15 13:36:40;;;;;;;4.00;1.60;;;28.00;34.50;;;;;;5089842;28;20055;-83
2022/06/15 13:39:26;;;;;;;4.82;1.38;;;27.20;35.70;;;;;;5066671;28;20489;-82